Terminal Aerodrome Forecast
Issued by NWS Detroit/Pontiac, MI

Home | Current Version | Previous Version | Text Only | Print | Product List | Glossary On
Versions: 1 2 3 4 5 6 7 8 9 10 11 12 13 14 15 16 17 18 19 20 21 22 23 24 25 26 27
000
FTUS43 KDTX 301509 AAA
TAFDTW
TAF AMD
KDTW 301509Z 3015/3118 15005KT P6SM BKN045
     FM301700 23007KT P6SM BKN045
     FM310200 23005KT P6SM SCT030
     FM310900 VRB02KT 3SM BR SKC
     FM311300 25008KT P6SM SCT250=

USA.gov is the U.S. government's official web portal to all federal, state and local government web resources and services.